Time;durP1;ratioP1;P1;durP2;ratioP2;P2;SDS_P1;SDS_P2;PMS_P1;PMS_P2;Temp;Humidity;BMP_temperature;BMP_pressure;BME280_temperature;BME280_humidity;BME280_pressure;Samples;Min_cycle;Max_cycle;Signal;HPM_P1;HPM_P2
2022/12/28 00:01:17;;;;;;;27.70;3.23;;;;;-1.00;94583.00;;;;7400224;19;20204;-73
2022/12/28 00:03:45;;;;;;;6.27;3.23;;;;;-0.90;94583.00;;;;7400603;19;20508;-73
2022/12/28 00:06:21;;;;;;;8.40;1.97;;;;;-0.50;94583.00;;;;7399753;19;20161;-72
2022/12/28 00:08:51;;;;;;;5.10;1.70;;;;;-0.30;94581.00;;;;7399348;19;20155;-72
2022/12/28 00:11:20;;;;;;;7.03;1.60;;;;;0.00;94585.00;;;;7398475;19;20125;-72
2022/12/28 00:14:01;;;;;;;2.43;1.40;;;;;0.40;94585.00;;;;7397311;19;20552;-73
2022/12/28 00:16:31;;;;;;;1.67;1.27;;;;;0.60;94583.00;;;;7399454;19;20178;-72
2022/12/28 00:19:11;;;;;;;4.57;1.53;;;;;0.80;94574.00;;;;7398958;19;20144;-73
2022/12/28 00:21:39;;;;;;;2.77;1.20;;;;;1.10;94577.00;;;;7399899;19;20154;-72
2022/12/28 00:24:24;;;;;;;2.47;1.23;;;;;1.40;94579.00;;;;7398342;19;20125;-72
2022/12/28 00:26:52;;;;;;;2.90;0.90;;;;;1.40;94586.00;;;;7399259;19;20125;-72
2022/12/28 00:29:26;;;;;;;2.17;1.30;;;;;1.40;94582.00;;;;7398742;19;20215;-72
2022/12/28 00:31:54;;;;;;;1.60;1.00;;;;;1.90;94584.00;;;;7398002;19;20518;-72
2022/12/28 00:34:21;;;;;;;1.37;0.90;;;;;2.00;94576.00;;;;7395714;19;20145;-72
2022/12/28 00:37:02;;;;;;;3.37;1.20;;;;;2.00;94569.00;;;;7397469;19;20179;-72
2022/12/28 00:39:45;;;;;;;1.30;0.90;;;;;1.80;94568.00;;;;7396904;19;20144;-72
2022/12/28 00:42:20;;;;;;;2.23;1.30;;;;;1.60;94548.00;;;;7397455;19;20113;-71
2022/12/28 00:44:47;;;;;;;1.80;1.20;;;;;1.60;94556.00;;;;7397785;19;20129;-72
2022/12/28 00:47:15;;;;;;;2.40;1.43;;;;;1.80;94552.00;;;;7398631;19;20141;-73
2022/12/28 00:49:48;;;;;;;5.50;1.23;;;;;1.70;94553.00;;;;7398133;19;20204;-71
2022/12/28 00:52:15;;;;;;;7.93;1.30;;;;;1.70;94553.00;;;;7397464;19;20160;-72
2022/12/28 00:54:43;;;;;;;3.50;1.33;;;;;1.60;94545.00;;;;7397455;19;20184;-72
2022/12/28 00:57:17;;;;;;;1.83;1.50;;;;;1.70;94544.00;;;;7396844;19;20150;-72
2022/12/28 00:59:45;;;;;;;2.57;1.50;;;;;1.80;94539.00;;;;7397481;19;20506;-72
2022/12/28 01:02:12;;;;;;;5.53;1.47;;;;;1.60;94541.00;;;;7399034;19;20583;-71
2022/12/28 01:04:46;;;;;;;4.53;1.43;;;;;1.50;94535.00;;;;7398055;19;20595;-72
2022/12/28 01:07:14;;;;;;;1.97;1.57;;;;;1.50;94531.00;;;;7397748;19;20490;-71
2022/12/28 01:09:41;;;;;;;2.03;1.50;;;;;1.60;94535.00;;;;7398663;19;20133;-71
2022/12/28 01:12:15;;;;;;;2.33;1.50;;;;;1.40;94530.00;;;;7399077;19;20135;-72
2022/12/28 01:14:43;;;;;;;3.83;1.90;;;;;1.70;94529.00;;;;7397357;19;20133;-71
2022/12/28 01:17:10;;;;;;;2.73;1.77;;;;;1.70;94525.00;;;;7399357;19;20453;-72
2022/12/28 01:19:46;;;;;;;4.27;2.10;;;;;1.30;94522.00;;;;7395456;19;20132;-72
2022/12/28 01:22:20;;;;;;;3.43;1.70;;;;;1.10;94514.00;;;;7398761;19;20650;-72
2022/12/28 01:24:54;;;;;;;2.90;2.30;;;;;1.10;94523.00;;;;7398422;19;20247;-71
2022/12/28 01:27:21;;;;;;;3.83;1.77;;;;;1.00;94514.00;;;;7394052;19;20129;-71
2022/12/28 01:29:48;;;;;;;5.60;1.70;;;;;0.90;94504.00;;;;7397676;19;20141;-72
2022/12/28 01:32:23;;;;;;;6.03;1.90;;;;;0.80;94505.00;;;;7394008;19;20662;-72
2022/12/28 01:34:50;;;;;;;2.03;1.70;;;;;0.70;94514.00;;;;7390948;19;20139;-72
2022/12/28 01:37:21;;;;;;;4.53;1.60;;;;;0.70;94499.00;;;;7396494;19;20156;-71
2022/12/28 01:40:04;;;;;;;5.33;1.70;;;;;0.70;94498.00;;;;7396768;19;20603;-71
2022/12/28 01:42:31;;;;;;;3.53;1.40;;;;;0.90;94497.00;;;;7396216;19;20136;-71
2022/12/28 01:45:16;;;;;;;2.07;1.10;;;;;1.20;94491.00;;;;7398249;19;20136;-71
2022/12/28 01:47:47;;;;;;;1.43;0.83;;;;;1.80;94485.00;;;;7403056;19;20623;-72
2022/12/28 01:50:24;;;;;;;1.13;1.03;;;;;2.00;94492.00;;;;7401777;19;20614;-71
2022/12/28 01:52:58;;;;;;;0.77;0.57;;;;;2.00;94495.00;;;;7402053;19;20148;-70
2022/12/28 01:55:35;;;;;;;0.73;0.73;;;;;2.40;94490.00;;;;7399477;19;20165;-72
2022/12/28 01:58:19;;;;;;;6.67;0.80;;;;;2.50;94486.00;;;;7398749;19;20170;-72
2022/12/28 02:00:53;;;;;;;1.30;0.80;;;;;2.70;94478.00;;;;7399908;19;20564;-74
2022/12/28 02:03:25;;;;;;;1.20;0.90;;;;;2.70;94475.00;;;;7399118;19;20151;-75
2022/12/28 02:05:59;;;;;;;1.53;1.43;;;;;2.80;94474.00;;;;7400077;19;20188;-75
2022/12/28 02:08:57;;;;;;;2.23;0.93;;;;;2.90;94478.00;;;;7399960;19;20135;-76
2022/12/28 02:11:29;;;;;;;2.00;0.80;;;;;2.90;94474.00;;;;7397600;19;20909;-75
2022/12/28 02:14:08;;;;;;;1.80;0.80;;;;;3.00;94468.00;;;;7394740;19;20196;-75
2022/12/28 02:16:35;;;;;;;4.47;0.90;;;;;3.10;94466.00;;;;7401397;19;20193;-74
2022/12/28 02:19:17;;;;;;;3.37;0.90;;;;;3.10;94458.00;;;;7397000;19;20160;-74
2022/12/28 02:22:26;;;;;;;1.37;0.47;;;;;3.20;94459.00;;;;7397584;19;20198;-74
2022/12/28 02:25:19;;;;;;;1.57;0.70;;;;;3.20;94457.00;;;;7398017;19;20494;-75
2022/12/28 02:28:05;;;;;;;2.87;0.80;;;;;3.20;94447.00;;;;7400399;19;20611;-75
2022/12/28 02:30:55;;;;;;;3.30;0.60;;;;;3.20;94428.00;;;;7401550;19;20125;-75
2022/12/28 02:33:42;;;;;;;0.73;0.40;;;;;3.10;94436.00;;;;7400014;19;20168;-75
2022/12/28 02:36:36;;;;;;;1.07;0.50;;;;;3.10;94433.00;;;;7402171;19;20128;-75
2022/12/28 02:39:37;;;;;;;1.20;0.70;;;;;3.00;94443.00;;;;7401499;19;20497;-74
2022/12/28 02:42:13;;;;;;;0.63;0.63;;;;;3.10;94429.00;;;;7403861;19;20133;-74
2022/12/28 02:50:20;;;;;;;0.70;0.40;;;;;2.80;94417.00;;;;7401881;19;20151;-75
2022/12/28 02:53:04;;;;;;;1.33;0.60;;;;;2.90;94415.00;;;;7402271;19;20145;-74
2022/12/28 02:59:09;;;;;;;0.50;0.40;;;;;3.00;94405.00;;;;7401623;19;20180;-74
2022/12/28 03:01:48;;;;;;;1.23;0.70;;;;;3.10;94408.00;;;;7401994;19;20591;-74
2022/12/28 03:04:34;;;;;;;4.07;0.70;;;;;3.20;94396.00;;;;7400346;19;20152;-74
2022/12/28 03:10:20;;;;;;;0.23;0.23;;;;;3.20;94397.00;;;;7402578;19;20495;-75
2022/12/28 03:13:01;;;;;;;1.47;0.40;;;;;3.30;94404.00;;;;7401242;19;20644;-74
2022/12/28 03:15:37;;;;;;;1.90;0.70;;;;;3.30;94399.00;;;;7401508;19;20152;-75
2022/12/28 03:32:37;;;;;;;1.00;0.50;;;;;3.30;94385.00;;;;7400265;19;20183;-75
2022/12/28 03:35:05;;;;;;;0.93;0.60;;;;;3.20;94387.00;;;;7397346;19;20612;-75
2022/12/28 03:37:51;;;;;;;1.43;0.63;;;;;3.30;94383.00;;;;7399475;19;20159;-75
2022/12/28 03:40:43;;;;;;;1.87;0.60;;;;;3.40;94381.00;;;;7401275;19;20132;-75
2022/12/28 03:43:41;;;;;;;1.37;0.70;;;;;3.40;94379.00;;;;7401127;19;20131;-75
2022/12/28 03:46:35;;;;;;;1.73;0.50;;;;;3.30;94376.00;;;;7399132;19;20207;-75
2022/12/28 03:49:03;;;;;;;0.67;0.37;;;;;3.30;94377.00;;;;7399835;19;20164;-75
2022/12/28 03:51:37;;;;;;;0.93;0.70;;;;;3.30;94380.00;;;;7399488;19;20140;-75
2022/12/28 03:54:12;;;;;;;1.10;0.80;;;;;3.30;94374.00;;;;7398193;19;20133;-74
2022/12/28 03:56:48;;;;;;;1.17;0.70;;;;;3.30;94368.00;;;;7401269;19;20604;-75
2022/12/28 03:59:16;;;;;;;2.97;0.80;;;;;3.30;94373.00;;;;7400873;19;20451;-74
2022/12/28 04:01:45;;;;;;;0.83;0.70;;;;;3.10;94362.00;;;;7400441;19;20136;-75
2022/12/28 04:04:19;;;;;;;1.63;0.60;;;;;3.10;94362.00;;;;7399231;19;20598;-75
2022/12/28 04:06:46;;;;;;;1.70;0.57;;;;;3.00;94374.00;;;;7398040;19;20125;-74
2022/12/28 04:09:14;;;;;;;3.40;1.07;;;;;2.90;94362.00;;;;7397175;19;20159;-74
2022/12/28 04:11:48;;;;;;;0.90;0.60;;;;;2.90;94364.00;;;;7398969;19;20468;-74
2022/12/28 04:14:15;;;;;;;1.10;0.67;;;;;3.00;94354.00;;;;7398284;19;20164;-75
2022/12/28 04:16:43;;;;;;;2.10;0.77;;;;;3.00;94353.00;;;;7398814;19;20146;-74
2022/12/28 04:19:17;;;;;;;0.57;0.57;;;;;3.10;94346.00;;;;7399036;19;20476;-74
2022/12/28 04:21:45;;;;;;;2.30;0.53;;;;;3.00;94351.00;;;;7394961;19;20568;-74
2022/12/28 04:24:14;;;;;;;0.50;0.50;;;;;2.70;94346.00;;;;7398422;19;20618;-75
2022/12/28 04:26:52;;;;;;;0.83;0.70;;;;;2.70;94339.00;;;;7398552;19;20181;-75
2022/12/28 04:29:19;;;;;;;1.50;0.50;;;;;2.70;94345.00;;;;7398953;19;20137;-75
2022/12/28 04:31:46;;;;;;;1.70;0.83;;;;;2.70;94357.00;;;;7397626;19;20145;-74
2022/12/28 04:34:20;;;;;;;3.27;0.80;;;;;2.60;94347.00;;;;7397626;19;20144;-75
2022/12/28 04:36:56;;;;;;;5.73;0.90;;;;;2.70;94350.00;;;;7396967;19;20503;-75
2022/12/28 04:39:39;;;;;;;1.37;0.70;;;;;2.80;94332.00;;;;7399376;19;20137;-75
2022/12/28 04:42:31;;;;;;;0.70;0.70;;;;;2.90;94339.00;;;;7396927;19;20584;-75
2022/12/28 04:45:06;;;;;;;3.87;0.70;;;;;2.90;94341.00;;;;7396885;19;20166;-74
2022/12/28 04:47:35;;;;;;;1.33;0.80;;;;;2.70;94333.00;;;;7398220;19;20160;-75
2022/12/28 04:50:03;;;;;;;1.47;0.73;;;;;2.70;94329.00;;;;7398415;19;20135;-74
2022/12/28 04:52:37;;;;;;;1.33;0.80;;;;;2.70;94316.00;;;;7398679;19;20133;-75
2022/12/28 04:55:04;;;;;;;2.10;0.80;;;;;2.80;94319.00;;;;7395027;19;20234;-75
2022/12/28 04:57:32;;;;;;;2.07;0.70;;;;;3.00;94316.00;;;;7398800;19;20491;-74
2022/12/28 05:00:06;;;;;;;2.07;0.70;;;;;3.00;94320.00;;;;7398294;19;20216;-75
2022/12/28 05:02:34;;;;;;;3.97;0.90;;;;;3.20;94315.00;;;;7398007;19;20132;-75
2022/12/28 05:05:04;;;;;;;2.13;0.80;;;;;3.40;94314.00;;;;7396621;19;20179;-74
2022/12/28 05:07:40;;;;;;;3.03;0.60;;;;;3.60;94314.00;;;;7398931;19;20139;-74
2022/12/28 05:10:08;;;;;;;1.50;0.60;;;;;3.60;94314.00;;;;7396440;19;20162;-75
2022/12/28 05:12:35;;;;;;;0.93;0.63;;;;;3.60;94310.00;;;;7395878;19;20156;-75
2022/12/28 05:15:11;;;;;;;4.50;0.83;;;;;3.60;94324.00;;;;7395896;19;20168;-74
2022/12/28 05:17:38;;;;;;;1.37;0.53;;;;;3.70;94323.00;;;;7396527;19;20155;-74
2022/12/28 05:20:06;;;;;;;2.00;0.93;;;;;3.60;94306.00;;;;7396216;19;20575;-74
2022/12/28 05:22:43;;;;;;;4.00;1.20;;;;;3.60;94322.00;;;;7396324;19;20190;-75
2022/12/28 05:25:16;;;;;;;1.27;0.60;;;;;3.50;94318.00;;;;7396474;19;20184;-74
2022/12/28 05:27:50;;;;;;;4.37;0.80;;;;;3.60;94316.00;;;;7394729;19;20148;-74
2022/12/28 05:30:18;;;;;;;3.17;1.10;;;;;3.60;94327.00;;;;7397027;19;20144;-74
2022/12/28 05:32:45;;;;;;;0.77;0.50;;;;;3.60;94317.00;;;;7393997;19;20180;-74
2022/12/28 05:35:19;;;;;;;0.63;0.60;;;;;3.70;94321.00;;;;7394685;19;20587;-75
2022/12/28 05:37:53;;;;;;;1.20;0.67;;;;;3.70;94316.00;;;;7395360;19;20169;-75
2022/12/28 05:40:28;;;;;;;0.60;0.60;;;;;3.80;94320.00;;;;7392761;19;20615;-74
2022/12/28 05:42:55;;;;;;;2.50;0.90;;;;;3.80;94309.00;;;;7395628;19;20149;-74
2022/12/28 05:45:23;;;;;;;0.73;0.67;;;;;3.90;94307.00;;;;7397156;19;20143;-75
2022/12/28 05:47:57;;;;;;;1.83;0.63;;;;;3.80;94303.00;;;;7397737;19;20132;-74
2022/12/28 05:50:24;;;;;;;1.63;0.80;;;;;3.90;94297.00;;;;7395520;19;20133;-74
2022/12/28 05:52:51;;;;;;;2.13;0.80;;;;;3.90;94288.00;;;;7393575;19;20157;-75
2022/12/28 05:55:25;;;;;;;2.23;0.80;;;;;3.80;94274.00;;;;7394549;19;20139;-74
2022/12/28 05:57:56;;;;;;;1.50;0.77;;;;;3.70;94286.00;;;;7396170;19;20148;-74
2022/12/28 06:00:23;;;;;;;2.43;0.90;;;;;3.70;94284.00;;;;7394748;19;20525;-74
2022/12/28 06:02:59;;;;;;;2.13;1.00;;;;;3.70;94280.00;;;;7396235;19;20584;-74
2022/12/28 06:05:29;;;;;;;4.80;0.93;;;;;3.70;94278.00;;;;7385203;19;20156;-74
2022/12/28 06:07:56;;;;;;;2.53;0.83;;;;;3.80;94270.00;;;;7394739;19;20129;-74
2022/12/28 06:10:31;;;;;;;2.30;0.70;;;;;3.70;94264.00;;;;7394595;19;20160;-73
2022/12/28 06:12:58;;;;;;;1.43;0.57;;;;;3.80;94273.00;;;;7396661;19;20196;-74
2022/12/28 06:15:25;;;;;;;6.63;1.00;;;;;3.80;94279.00;;;;7394927;19;20588;-73
2022/12/28 06:18:03;;;;;;;0.87;0.63;;;;;3.70;94276.00;;;;7396542;19;20125;-73
2022/12/28 06:20:31;;;;;;;2.40;0.60;;;;;3.80;94269.00;;;;7394763;19;20151;-73
2022/12/28 06:22:58;;;;;;;0.87;0.70;;;;;3.80;94274.00;;;;7393412;19;20607;-73
2022/12/28 06:25:32;;;;;;;2.97;0.80;;;;;3.80;94275.00;;;;7393775;19;20163;-73
2022/12/28 06:27:59;;;;;;;2.67;1.07;;;;;3.80;94264.00;;;;7392170;19;20157;-73
2022/12/28 06:30:29;;;;;;;1.40;0.70;;;;;3.80;94271.00;;;;7393757;19;20152;-73
2022/12/28 06:33:07;;;;;;;1.13;0.50;;;;;3.70;94274.00;;;;7400167;19;20148;-74
2022/12/28 06:35:39;;;;;;;1.70;0.90;;;;;3.90;94268.00;;;;7399461;19;20632;-75
2022/12/28 06:38:30;;;;;;;3.73;0.97;;;;;3.90;94269.00;;;;7399406;19;20487;-74
2022/12/28 06:41:05;;;;;;;0.90;0.70;;;;;4.00;94263.00;;;;7402266;19;20156;-74
2022/12/28 06:43:44;;;;;;;2.67;0.77;;;;;4.00;94259.00;;;;7404549;19;20129;-74
2022/12/28 06:46:12;;;;;;;3.57;0.80;;;;;4.00;94262.00;;;;7400950;19;20143;-74
2022/12/28 06:48:47;;;;;;;0.80;0.67;;;;;4.10;94252.00;;;;7400744;19;20180;-74
2022/12/28 06:51:20;;;;;;;2.37;0.93;;;;;4.10;94254.00;;;;7402946;19;20538;-74
2022/12/28 06:53:55;;;;;;;2.03;1.13;;;;;4.10;94253.00;;;;7403215;19;20208;-75
2022/12/28 06:56:28;;;;;;;3.40;0.70;;;;;4.20;94253.00;;;;7399802;19;20133;-74
2022/12/28 06:59:05;;;;;;;2.77;0.97;;;;;4.40;94244.00;;;;7399358;19;20157;-74
2022/12/28 07:01:35;;;;;;;2.20;0.80;;;;;4.40;94244.00;;;;7402551;19;20144;-74
2022/12/28 07:04:05;;;;;;;5.40;0.90;;;;;4.30;94243.00;;;;7402259;19;20534;-73
2022/12/28 07:06:43;;;;;;;2.20;0.70;;;;;4.20;94242.00;;;;7402239;19;20494;-74
2022/12/28 07:09:14;;;;;;;1.83;0.70;;;;;4.30;94241.00;;;;7400661;19;20141;-74
2022/12/28 07:11:51;;;;;;;4.30;0.87;;;;;4.40;94236.00;;;;7401245;19;20152;-74
2022/12/28 07:14:20;;;;;;;1.87;0.77;;;;;4.40;94241.00;;;;7401307;19;20152;-73
2022/12/28 07:16:48;;;;;;;2.17;0.63;;;;;4.40;94254.00;;;;7398263;19;20136;-74
2022/12/28 07:19:22;;;;;;;2.30;1.10;;;;;4.50;94240.00;;;;7402222;19;20153;-74
2022/12/28 07:21:50;;;;;;;0.70;0.50;;;;;4.50;94244.00;;;;7398861;19;20758;-74
2022/12/28 07:24:17;;;;;;;1.63;0.70;;;;;4.50;94236.00;;;;7400349;19;20616;-74
2022/12/28 07:26:51;;;;;;;2.63;0.90;;;;;4.60;94237.00;;;;7399217;19;20149;-74
2022/12/28 07:29:18;;;;;;;1.33;0.57;;;;;4.80;94240.00;;;;7400770;19;20148;-74
2022/12/28 07:31:46;;;;;;;1.27;0.70;;;;;4.80;94232.00;;;;7399914;19;20168;-74
2022/12/28 07:34:20;;;;;;;1.30;0.57;;;;;4.70;94233.00;;;;7398091;19;20610;-74
2022/12/28 07:37:01;;;;;;;1.03;0.53;;;;;4.70;94235.00;;;;7396652;19;20676;-74
2022/12/28 07:39:35;;;;;;;4.43;0.43;;;;;4.70;94224.00;;;;7399615;19;20128;-74
2022/12/28 07:42:05;;;;;;;3.80;0.50;;;;;4.70;94229.00;;;;7398606;19;20212;-75
2022/12/28 07:44:33;;;;;;;1.23;0.70;;;;;4.70;94234.00;;;;7397628;19;20595;-74
2022/12/28 07:47:15;;;;;;;1.80;0.50;;;;;4.90;94221.00;;;;7395005;19;20615;-74
2022/12/28 07:49:43;;;;;;;1.57;0.63;;;;;4.90;94223.00;;;;7395416;19;20140;-74
2022/12/28 07:52:17;;;;;;;4.77;0.80;;;;;5.00;94222.00;;;;7395312;19;20634;-74
2022/12/28 07:54:47;;;;;;;3.63;0.80;;;;;5.00;94224.00;;;;7396972;19;20129;-74
2022/12/28 07:57:15;;;;;;;0.60;0.60;;;;;5.00;94215.00;;;;7391977;19;20612;-74
2022/12/28 07:59:49;;;;;;;4.20;0.63;;;;;5.10;94216.00;;;;7396914;19;20129;-73
2022/12/28 08:02:19;;;;;;;0.97;0.60;;;;;5.10;94213.00;;;;7397053;19;20158;-73
2022/12/28 08:04:47;;;;;;;2.17;0.57;;;;;5.20;94214.00;;;;7395456;19;20128;-75
2022/12/28 08:07:21;;;;;;;1.10;0.53;;;;;5.30;94215.00;;;;7395399;19;20178;-74
2022/12/28 08:09:48;;;;;;;1.70;0.57;;;;;5.40;94206.00;;;;7393601;19;20736;-74
2022/12/28 08:12:16;;;;;;;0.93;0.50;;;;;5.30;94220.00;;;;7396423;19;20136;-74
2022/12/28 08:14:50;;;;;;;0.40;0.40;;;;;5.40;94218.00;;;;7396151;19;20587;-74
2022/12/28 08:17:18;;;;;;;0.83;0.47;;;;;5.40;94220.00;;;;7394743;19;20125;-75
2022/12/28 08:19:49;;;;;;;1.47;0.60;;;;;5.50;94219.00;;;;7396174;19;20129;-74
2022/12/28 08:22:23;;;;;;;2.40;0.80;;;;;5.60;94227.00;;;;7395277;19;20156;-74
2022/12/28 08:24:51;;;;;;;1.10;0.77;;;;;5.60;94221.00;;;;7395941;19;20129;-74
2022/12/28 08:27:18;;;;;;;1.63;0.50;;;;;5.60;94224.00;;;;7394220;19;20270;-74
2022/12/28 08:29:52;;;;;;;1.43;0.57;;;;;5.60;94220.00;;;;7395893;19;20184;-74
2022/12/28 08:32:19;;;;;;;2.97;0.97;;;;;5.70;94226.00;;;;7393116;19;20191;-74
2022/12/28 08:34:47;;;;;;;3.07;0.53;;;;;5.60;94223.00;;;;7392743;19;20503;-74
2022/12/28 08:37:34;;;;;;;0.30;0.30;;;;;5.60;94227.00;;;;7393372;19;20152;-75
2022/12/28 08:40:09;;;;;;;3.30;0.70;;;;;5.70;94223.00;;;;7394127;19;20161;-74
2022/12/28 08:42:43;;;;;;;1.13;0.57;;;;;5.70;94228.00;;;;7394059;19;20152;-74
2022/12/28 08:45:11;;;;;;;1.57;0.40;;;;;5.90;94217.00;;;;7393643;19;20555;-74
2022/12/28 08:47:38;;;;;;;1.13;0.60;;;;;5.80;94215.00;;;;7394582;19;20145;-74
2022/12/28 08:50:12;;;;;;;0.60;0.50;;;;;5.90;94215.00;;;;7393610;19;20645;-75
2022/12/28 08:52:47;;;;;;;2.60;0.83;;;;;5.90;94218.00;;;;7392657;19;20216;-75
2022/12/28 08:55:22;;;;;;;1.13;0.40;;;;;6.00;94212.00;;;;7394402;19;20132;-75
2022/12/28 08:57:56;;;;;;;0.87;0.60;;;;;5.80;94214.00;;;;7394741;19;20613;-75
2022/12/28 09:00:32;;;;;;;1.50;0.50;;;;;5.70;94215.00;;;;7398064;19;20133;-75
2022/12/28 09:02:59;;;;;;;1.70;0.70;;;;;5.80;94208.00;;;;7397682;19;20360;-75
2022/12/28 09:05:27;;;;;;;1.03;0.60;;;;;5.80;94211.00;;;;7396990;19;20124;-75
2022/12/28 09:08:06;;;;;;;1.70;0.60;;;;;5.90;94195.00;;;;7398132;19;20150;-75
2022/12/28 09:10:33;;;;;;;1.37;0.80;;;;;5.90;94192.00;;;;7394460;19;20161;-74
2022/12/28 09:13:00;;;;;;;0.77;0.50;;;;;5.80;94194.00;;;;7396064;19;20619;-75
2022/12/28 09:15:36;;;;;;;1.10;0.50;;;;;5.90;94195.00;;;;7398458;19;20137;-75
2022/12/28 09:18:14;;;;;;;1.77;0.73;;;;;5.90;94205.00;;;;7399059;19;20153;-74
2022/12/28 09:20:50;;;;;;;0.77;0.60;;;;;6.10;94190.00;;;;7396200;19;20625;-74
2022/12/28 09:23:17;;;;;;;0.77;0.40;;;;;6.10;94195.00;;;;7397574;19;20593;-75
2022/12/28 09:25:48;;;;;;;2.60;0.50;;;;;6.20;94193.00;;;;7395719;19;20124;-74
2022/12/28 09:28:24;;;;;;;2.20;0.97;;;;;6.30;94188.00;;;;7397225;19;20609;-74
2022/12/28 09:30:51;;;;;;;0.77;0.63;;;;;6.40;94195.00;;;;7396130;19;20139;-74
2022/12/28 09:36:39;;;;;;;0.87;0.80;;;;;6.60;94199.00;;;;7394431;19;20141;-74
2022/12/28 09:39:23;;;;;;;1.07;0.83;;;;;6.60;94194.00;;;;7393118;19;20496;-75
2022/12/28 09:42:22;;;;;;;3.13;0.70;;;;;6.60;94198.00;;;;7396410;19;20137;-75
2022/12/28 09:44:56;;;;;;;0.93;0.43;;;;;7.00;94192.00;;;;7395516;19;20589;-75
2022/12/28 09:47:51;;;;;;;1.53;0.50;;;;;7.00;94199.00;;;;7396492;19;20627;-75
2022/12/28 09:50:28;;;;;;;1.27;0.60;;;;;7.00;94193.00;;;;7393758;19;20671;-75
2022/12/28 09:53:20;;;;;;;1.70;0.70;;;;;7.00;94200.00;;;;7397239;19;20493;-75
2022/12/28 09:55:56;;;;;;;0.97;0.40;;;;;7.20;94191.00;;;;7397953;19;20580;-75
2022/12/28 09:58:32;;;;;;;0.87;0.50;;;;;7.30;94193.00;;;;7395181;19;20157;-74
2022/12/28 10:01:02;;;;;;;1.73;0.70;;;;;7.50;94182.00;;;;7395900;19;20121;-75
2022/12/28 10:03:39;;;;;;;1.13;0.43;;;;;7.80;94188.00;;;;7395684;19;20148;-74
2022/12/28 10:06:15;;;;;;;1.23;0.47;;;;;8.00;94192.00;;;;7397563;19;20129;-74
2022/12/28 10:08:58;;;;;;;2.07;0.67;;;;;8.00;94179.00;;;;7402368;19;20152;-74
2022/12/28 10:11:38;;;;;;;1.27;0.60;;;;;8.30;94180.00;;;;7404285;19;20136;-75
2022/12/28 10:14:34;;;;;;;1.53;0.70;;;;;8.90;94169.00;;;;7403174;19;20156;-75
2022/12/28 10:17:06;;;;;;;1.70;1.00;;;;;9.20;94164.00;;;;7401927;19;20167;-75
2022/12/28 10:19:42;;;;;;;1.53;0.50;;;;;10.30;94157.00;;;;7402972;19;20161;-75
2022/12/28 10:22:18;;;;;;;1.17;0.67;;;;;10.30;94156.00;;;;7403434;19;20121;-74
2022/12/28 10:24:52;;;;;;;1.75;0.40;;;;;10.60;94163.00;;;;7403242;19;20188;-75
2022/12/28 10:27:29;;;;;;;2.65;0.52;;;;;10.90;94155.00;;;;7402961;19;20501;-75
2022/12/28 10:30:15;;;;;;;3.05;0.70;;;;;11.00;94158.00;;;;7403963;19;20481;-75
2022/12/28 10:32:54;;;;;;;1.17;0.60;;;;;11.20;94144.00;;;;7400450;19;20167;-75
2022/12/28 10:35:47;;;;;;;1.35;0.50;;;;;11.00;94154.00;;;;7403584;19;20125;-75
2022/12/28 10:38:29;;;;;;;1.63;0.65;;;;;9.80;94150.00;;;;7400352;19;20468;-75
2022/12/28 10:41:16;;;;;;;1.88;0.70;;;;;9.70;94143.00;;;;7402574;19;20129;-75
2022/12/28 10:43:48;;;;;;;2.58;0.60;;;;;9.80;94149.00;;;;7403816;19;20206;-74
2022/12/28 10:46:52;;;;;;;2.15;0.50;;;;;9.40;94135.00;;;;7401947;19;20513;-75
2022/12/28 10:49:20;;;;;;;2.53;0.60;;;;;9.50;94150.00;;;;7402897;19;20144;-75
2022/12/28 10:52:13;;;;;;;1.90;0.50;;;;;9.10;94152.00;;;;7402247;19;20487;-75
2022/12/28 10:54:41;;;;;;;1.50;0.67;;;;;8.80;94145.00;;;;7399394;19;20168;-74
2022/12/28 10:57:35;;;;;;;2.93;0.57;;;;;8.80;94133.00;;;;7399766;19;20141;-75
2022/12/28 11:00:24;;;;;;;1.23;0.50;;;;;9.00;94132.00;;;;7401680;19;20129;-74
2022/12/28 11:02:59;;;;;;;1.83;1.07;;;;;8.30;94130.00;;;;7401240;19;20154;-75
2022/12/28 11:05:31;;;;;;;1.37;0.70;;;;;8.50;94133.00;;;;7401565;19;20472;-75
2022/12/28 11:08:05;;;;;;;2.67;1.47;;;;;8.30;94133.00;;;;7402896;19;20149;-75
2022/12/28 11:10:40;;;;;;;3.67;1.90;;;;;8.70;94109.00;;;;7401914;19;20172;-75
2022/12/28 11:13:19;;;;;;;2.83;1.40;;;;;8.60;94130.00;;;;7402365;19;20133;-75
2022/12/28 11:15:53;;;;;;;3.33;1.70;;;;;9.10;94107.00;;;;7400467;19;20174;-74
2022/12/28 11:18:20;;;;;;;3.40;1.57;;;;;9.00;94119.00;;;;7400821;19;20146;-75
2022/12/28 11:20:51;;;;;;;3.17;1.83;;;;;9.30;94125.00;;;;7402740;19;20201;-75
2022/12/28 11:23:30;;;;;;;3.37;1.47;;;;;9.00;94129.00;;;;7402342;19;20128;-75
2022/12/28 11:25:59;;;;;;;1.53;1.43;;;;;9.30;94102.00;;;;7400722;19;20128;-75
2022/12/28 11:28:33;;;;;;;2.83;1.50;;;;;9.80;94089.00;;;;7400431;19;20145;-75
2022/12/28 11:31:04;;;;;;;1.42;1.30;;;;;10.20;94099.00;;;;7401876;19;20139;-74
2022/12/28 11:33:48;;;;;;;1.98;1.30;;;;;10.10;94096.00;;;;7398549;19;20160;-75
2022/12/28 11:36:24;;;;;;;2.60;1.45;;;;;10.40;94094.00;;;;7402425;19;20137;-75
2022/12/28 11:39:18;;;;;;;1.52;1.27;;;;;10.50;94087.00;;;;7400060;19;20591;-75
2022/12/28 11:41:59;;;;;;;1.90;1.55;;;;;10.50;94086.00;;;;7398617;19;20718;-74
2022/12/28 11:44:48;;;;;;;2.03;1.30;;;;;10.80;94086.00;;;;7400005;19;20137;-74
2022/12/28 11:47:34;;;;;;;2.95;1.23;;;;;11.00;94073.00;;;;7401084;19;20587;-75
2022/12/28 11:50:33;;;;;;;2.45;1.48;;;;;10.60;94078.00;;;;7400230;19;20145;-76
2022/12/28 11:53:41;;;;;;;2.55;1.42;;;;;10.80;94071.00;;;;7401662;19;20136;-74
2022/12/28 11:56:15;;;;;;;4.72;1.40;;;;;10.80;94071.00;;;;7400087;19;20128;-75
2022/12/28 11:59:02;;;;;;;3.17;1.55;;;;;10.60;94072.00;;;;7397880;19;20188;-74
2022/12/28 12:01:32;;;;;;;2.88;1.70;;;;;11.00;94070.00;;;;7400241;19;20153;-75
2022/12/28 12:04:10;;;;;;;3.22;1.48;;;;;10.80;94067.00;;;;7399766;19;20120;-75
2022/12/28 12:07:04;;;;;;;1.65;1.25;;;;;10.50;94066.00;;;;7398984;19;20133;-75
2022/12/28 12:09:41;;;;;;;3.13;1.50;;;;;10.50;94050.00;;;;7399619;19;20837;-75
2022/12/28 12:12:15;;;;;;;2.67;1.85;;;;;10.60;94052.00;;;;7400925;19;20133;-75
2022/12/28 12:15:03;;;;;;;1.90;1.50;;;;;10.10;94039.00;;;;7398982;19;20133;-74
2022/12/28 12:17:48;;;;;;;3.40;1.40;;;;;10.50;94041.00;;;;7398636;19;20133;-74
2022/12/28 12:20:45;;;;;;;3.72;1.63;;;;;10.60;94044.00;;;;7400307;19;20184;-75
2022/12/28 12:23:35;;;;;;;3.72;1.70;;;;;10.70;94036.00;;;;7398342;19;20153;-75
2022/12/28 12:26:36;;;;;;;4.05;1.60;;;;;10.60;94032.00;;;;7398520;19;20504;-75
2022/12/28 12:29:36;;;;;;;1.80;1.67;;;;;10.20;94027.00;;;;7398633;19;20135;-75
2022/12/28 12:32:24;;;;;;;1.95;1.60;;;;;9.90;94029.00;;;;7399338;19;20625;-75
2022/12/28 12:34:59;;;;;;;2.33;1.75;;;;;9.80;94023.00;;;;7397078;19;20156;-75
2022/12/28 12:37:55;;;;;;;2.15;1.75;;;;;8.60;94027.00;;;;7399150;19;20145;-75
2022/12/28 12:40:46;;;;;;;1.85;1.30;;;;;7.90;94034.00;;;;7394433;19;20149;-74
2022/12/28 12:43:28;;;;;;;2.05;1.42;;;;;7.50;94024.00;;;;7400166;19;20124;-75
2022/12/28 12:46:03;;;;;;;2.60;1.37;;;;;7.30;94022.00;;;;7399761;19;20121;-75
2022/12/28 12:49:01;;;;;;;3.23;1.50;;;;;7.30;94025.00;;;;7394685;19;20185;-75
2022/12/28 12:51:31;;;;;;;1.47;1.37;;;;;7.10;94017.00;;;;7396102;19;20160;-74
2022/12/28 12:54:16;;;;;;;1.30;1.20;;;;;6.90;94018.00;;;;7399749;19;20133;-74
2022/12/28 12:56:47;;;;;;;2.40;1.40;;;;;6.60;94015.00;;;;7398091;19;20145;-75
2022/12/28 12:59:32;;;;;;;3.93;1.80;;;;;6.30;94023.00;;;;7397480;19;20128;-75
2022/12/28 13:02:32;;;;;;;4.20;2.00;;;;;6.30;94022.00;;;;7395935;19;20650;-74
2022/12/28 13:05:13;;;;;;;2.93;2.10;;;;;6.10;94017.00;;;;7398909;19;20595;-75
2022/12/28 13:07:40;;;;;;;3.60;2.10;;;;;6.00;94013.00;;;;7399039;19;20144;-75
2022/12/28 13:10:42;;;;;;;3.23;2.10;;;;;6.10;94003.00;;;;7398567;19;20617;-75
2022/12/28 13:13:22;;;;;;;4.17;2.70;;;;;5.80;93994.00;;;;7395356;19;20175;-75
2022/12/28 13:16:14;;;;;;;3.70;2.50;;;;;5.70;93998.00;;;;7397982;19;20160;-75
2022/12/28 13:19:16;;;;;;;3.70;2.50;;;;;5.60;93989.00;;;;7395742;19;20152;-75
2022/12/28 13:21:51;;;;;;;8.77;2.70;;;;;5.70;93983.00;;;;7398583;19;20639;-75
2022/12/28 13:24:26;;;;;;;2.87;2.20;;;;;5.80;93973.00;;;;7396993;19;20188;-74
2022/12/28 13:27:00;;;;;;;3.50;2.60;;;;;5.60;93974.00;;;;7397167;19;20479;-75
2022/12/28 13:29:38;;;;;;;4.90;2.77;;;;;5.60;93977.00;;;;7397883;19;20318;-74
2022/12/28 13:32:35;;;;;;;3.33;2.47;;;;;5.60;93971.00;;;;7396127;19;20520;-75
2022/12/28 13:35:19;;;;;;;5.40;2.30;;;;;5.80;93958.00;;;;7396897;19;20157;-75
2022/12/28 13:38:14;;;;;;;2.40;1.90;;;;;5.80;93954.00;;;;7397013;19;20224;-74
2022/12/28 13:40:51;;;;;;;4.40;2.00;;;;;5.70;93960.00;;;;7396418;19;20531;-74